sensor_id;sensor_type;location;lat;lon;timestamp;P1;durP1;ratioP1;P2;durP2;ratioP2
76599;SDS011;65489;52.048;6.090;2023-09-07T00:01:15;2.03;;;1.10;;
76599;SDS011;65489;52.048;6.090;2023-09-07T00:03:41;1.00;;;0.90;;
76599;SDS011;65489;52.048;6.090;2023-09-07T00:06:07;1.05;;;0.95;;
76599;SDS011;65489;52.048;6.090;2023-09-07T00:08:32;1.85;;;1.00;;
76599;SDS011;65489;52.048;6.090;2023-09-07T00:11:08;0.80;;;0.80;;
76599;SDS011;65489;52.048;6.090;2023-09-07T00:13:34;0.88;;;0.82;;
76599;SDS011;65489;52.048;6.090;2023-09-07T00:16:01;1.20;;;1.00;;
76599;SDS011;65489;52.048;6.090;2023-09-07T00:18:27;1.23;;;1.13;;
76599;SDS011;65489;52.048;6.090;2023-09-07T00:20:53;1.23;;;0.90;;
76599;SDS011;65489;52.048;6.090;2023-09-07T00:23:18;1.58;;;1.30;;
76599;SDS011;65489;52.048;6.090;2023-09-07T00:25:45;1.33;;;1.00;;
76599;SDS011;65489;52.048;6.090;2023-09-07T00:28:11;1.10;;;0.90;;
76599;SDS011;65489;52.048;6.090;2023-09-07T00:30:36;1.40;;;1.05;;
76599;SDS011;65489;52.048;6.090;2023-09-07T00:33:02;2.08;;;1.10;;
76599;SDS011;65489;52.048;6.090;2023-09-07T00:35:27;1.92;;;0.95;;
76599;SDS011;65489;52.048;6.090;2023-09-07T00:37:53;1.02;;;0.90;;
76599;SDS011;65489;52.048;6.090;2023-09-07T00:40:19;1.20;;;1.00;;
76599;SDS011;65489;52.048;6.090;2023-09-07T00:42:45;1.10;;;1.00;;
76599;SDS011;65489;52.048;6.090;2023-09-07T00:45:10;1.10;;;0.98;;
76599;SDS011;65489;52.048;6.090;2023-09-07T00:47:36;2.42;;;1.00;;
76599;SDS011;65489;52.048;6.090;2023-09-07T00:50:06;1.10;;;1.00;;
76599;SDS011;65489;52.048;6.090;2023-09-07T00:52:33;1.20;;;0.90;;
76599;SDS011;65489;52.048;6.090;2023-09-07T00:54:59;1.13;;;1.00;;
76599;SDS011;65489;52.048;6.090;2023-09-07T00:57:26;2.05;;;0.90;;
76599;SDS011;65489;52.048;6.090;2023-09-07T00:59:52;0.90;;;0.88;;
76599;SDS011;65489;52.048;6.090;2023-09-07T01:02:17;1.10;;;0.90;;
76599;SDS011;65489;52.048;6.090;2023-09-07T01:04:43;1.98;;;0.93;;
76599;SDS011;65489;52.048;6.090;2023-09-07T01:07:12;1.10;;;0.95;;
76599;SDS011;65489;52.048;6.090;2023-09-07T01:09:40;1.33;;;1.10;;
76599;SDS011;65489;52.048;6.090;2023-09-07T01:12:06;1.17;;;0.90;;
76599;SDS011;65489;52.048;6.090;2023-09-07T01:14:36;1.85;;;0.93;;
76599;SDS011;65489;52.048;6.090;2023-09-07T01:17:02;1.60;;;1.00;;
76599;SDS011;65489;52.048;6.090;2023-09-07T01:19:28;1.33;;;0.98;;
76599;SDS011;65489;52.048;6.090;2023-09-07T01:21:54;1.20;;;0.93;;
76599;SDS011;65489;52.048;6.090;2023-09-07T01:24:20;1.30;;;1.10;;
76599;SDS011;65489;52.048;6.090;2023-09-07T01:26:46;1.10;;;1.00;;
76599;SDS011;65489;52.048;6.090;2023-09-07T01:29:15;1.98;;;0.98;;
76599;SDS011;65489;52.048;6.090;2023-09-07T01:31:42;1.40;;;1.10;;
76599;SDS011;65489;52.048;6.090;2023-09-07T01:34:07;1.00;;;0.90;;
76599;SDS011;65489;52.048;6.090;2023-09-07T01:36:34;1.10;;;0.80;;
76599;SDS011;65489;52.048;6.090;2023-09-07T01:39:00;1.70;;;0.90;;
76599;SDS011;65489;52.048;6.090;2023-09-07T01:41:27;1.20;;;1.00;;
76599;SDS011;65489;52.048;6.090;2023-09-07T01:43:54;1.27;;;1.00;;
76599;SDS011;65489;52.048;6.090;2023-09-07T01:46:19;1.20;;;1.00;;
76599;SDS011;65489;52.048;6.090;2023-09-07T01:48:45;1.58;;;0.98;;
76599;SDS011;65489;52.048;6.090;2023-09-07T01:51:11;1.30;;;0.95;;
76599;SDS011;65489;52.048;6.090;2023-09-07T01:53:36;1.40;;;1.10;;
76599;SDS011;65489;52.048;6.090;2023-09-07T01:56:02;0.82;;;0.77;;
76599;SDS011;65489;52.048;6.090;2023-09-07T01:58:27;1.10;;;0.90;;
76599;SDS011;65489;52.048;6.090;2023-09-07T02:00:56;1.92;;;1.20;;
76599;SDS011;65489;52.048;6.090;2023-09-07T02:03:22;0.98;;;0.82;;
76599;SDS011;65489;52.048;6.090;2023-09-07T02:05:48;1.73;;;0.93;;
76599;SDS011;65489;52.048;6.090;2023-09-07T02:08:14;2.40;;;0.90;;
76599;SDS011;65489;52.048;6.090;2023-09-07T02:10:39;1.33;;;0.85;;
76599;SDS011;65489;52.048;6.090;2023-09-07T02:13:05;1.50;;;1.02;;
76599;SDS011;65489;52.048;6.090;2023-09-07T02:15:30;1.10;;;1.00;;
76599;SDS011;65489;52.048;6.090;2023-09-07T02:17:56;1.10;;;1.00;;
76599;SDS011;65489;52.048;6.090;2023-09-07T02:20:21;1.55;;;1.00;;
76599;SDS011;65489;52.048;6.090;2023-09-07T02:22:47;1.42;;;0.93;;
76599;SDS011;65489;52.048;6.090;2023-09-07T02:25:13;1.60;;;1.23;;
76599;SDS011;65489;52.048;6.090;2023-09-07T02:27:38;2.67;;;0.98;;
76599;SDS011;65489;52.048;6.090;2023-09-07T02:30:05;1.17;;;0.93;;
76599;SDS011;65489;52.048;6.090;2023-09-07T02:32:31;1.33;;;0.93;;
76599;SDS011;65489;52.048;6.090;2023-09-07T02:34:57;1.27;;;1.17;;
76599;SDS011;65489;52.048;6.090;2023-09-07T02:37:23;1.50;;;0.90;;
76599;SDS011;65489;52.048;6.090;2023-09-07T02:39:49;1.70;;;0.95;;
76599;SDS011;65489;52.048;6.090;2023-09-07T02:42:15;0.93;;;0.88;;
76599;SDS011;65489;52.048;6.090;2023-09-07T02:44:40;1.98;;;0.93;;
76599;SDS011;65489;52.048;6.090;2023-09-07T02:47:06;1.23;;;1.02;;
76599;SDS011;65489;52.048;6.090;2023-09-07T02:49:31;1.35;;;1.13;;
76599;SDS011;65489;52.048;6.090;2023-09-07T02:51:56;1.42;;;1.02;;
76599;SDS011;65489;52.048;6.090;2023-09-07T02:54:23;1.77;;;0.98;;
76599;SDS011;65489;52.048;6.090;2023-09-07T02:56:49;1.25;;;1.10;;
76599;SDS011;65489;52.048;6.090;2023-09-07T02:59:14;2.95;;;1.20;;
76599;SDS011;65489;52.048;6.090;2023-09-07T03:01:40;1.23;;;1.00;;
76599;SDS011;65489;52.048;6.090;2023-09-07T03:04:06;1.60;;;1.08;;
76599;SDS011;65489;52.048;6.090;2023-09-07T03:06:32;1.30;;;1.20;;
76599;SDS011;65489;52.048;6.090;2023-09-07T03:08:58;1.33;;;1.08;;
76599;SDS011;65489;52.048;6.090;2023-09-07T03:11:24;1.83;;;1.17;;
76599;SDS011;65489;52.048;6.090;2023-09-07T03:13:49;1.60;;;1.17;;
76599;SDS011;65489;52.048;6.090;2023-09-07T03:16:15;2.35;;;1.20;;
76599;SDS011;65489;52.048;6.090;2023-09-07T03:18:40;1.88;;;1.05;;
76599;SDS011;65489;52.048;6.090;2023-09-07T03:21:06;3.05;;;1.50;;
76599;SDS011;65489;52.048;6.090;2023-09-07T03:23:32;1.58;;;1.27;;
76599;SDS011;65489;52.048;6.090;2023-09-07T03:25:58;1.65;;;1.08;;
76599;SDS011;65489;52.048;6.090;2023-09-07T03:28:24;2.17;;;1.00;;
76599;SDS011;65489;52.048;6.090;2023-09-07T03:30:50;1.13;;;1.00;;
76599;SDS011;65489;52.048;6.090;2023-09-07T03:33:16;3.30;;;1.50;;
76599;SDS011;65489;52.048;6.090;2023-09-07T03:35:42;2.20;;;1.00;;
76599;SDS011;65489;52.048;6.090;2023-09-07T03:38:07;1.48;;;1.30;;
76599;SDS011;65489;52.048;6.090;2023-09-07T03:40:33;1.35;;;1.20;;
76599;SDS011;65489;52.048;6.090;2023-09-07T03:42:59;1.48;;;1.30;;
76599;SDS011;65489;52.048;6.090;2023-09-07T03:45:25;1.63;;;1.10;;
76599;SDS011;65489;52.048;6.090;2023-09-07T03:47:51;2.20;;;1.30;;
76599;SDS011;65489;52.048;6.090;2023-09-07T03:50:18;1.73;;;1.25;;
76599;SDS011;65489;52.048;6.090;2023-09-07T03:52:43;1.25;;;1.15;;
76599;SDS011;65489;52.048;6.090;2023-09-07T03:55:09;1.40;;;1.30;;
76599;SDS011;65489;52.048;6.090;2023-09-07T03:57:36;1.48;;;1.10;;
76599;SDS011;65489;52.048;6.090;2023-09-07T04:00:02;1.25;;;1.10;;
76599;SDS011;65489;52.048;6.090;2023-09-07T04:02:38;1.65;;;1.30;;
76599;SDS011;65489;52.048;6.090;2023-09-07T04:05:04;2.38;;;1.02;;
76599;SDS011;65489;52.048;6.090;2023-09-07T04:09:58;2.63;;;1.13;;
76599;SDS011;65489;52.048;6.090;2023-09-07T04:12:24;3.80;;;1.30;;
76599;SDS011;65489;52.048;6.090;2023-09-07T04:14:49;1.50;;;1.13;;
76599;SDS011;65489;52.048;6.090;2023-09-07T04:17:15;1.75;;;1.20;;
76599;SDS011;65489;52.048;6.090;2023-09-07T04:19:40;1.73;;;1.33;;
76599;SDS011;65489;52.048;6.090;2023-09-07T04:22:06;1.30;;;1.10;;
76599;SDS011;65489;52.048;6.090;2023-09-07T04:24:32;1.38;;;1.25;;
76599;SDS011;65489;52.048;6.090;2023-09-07T04:27:01;1.92;;;1.10;;
76599;SDS011;65489;52.048;6.090;2023-09-07T04:29:27;2.05;;;1.10;;
76599;SDS011;65489;52.048;6.090;2023-09-07T04:31:53;1.45;;;1.27;;
76599;SDS011;65489;52.048;6.090;2023-09-07T04:34:20;1.30;;;1.10;;
76599;SDS011;65489;52.048;6.090;2023-09-07T04:36:46;1.40;;;1.20;;
76599;SDS011;65489;52.048;6.090;2023-09-07T04:39:12;1.67;;;1.40;;
76599;SDS011;65489;52.048;6.090;2023-09-07T04:41:39;1.13;;;1.02;;
76599;SDS011;65489;52.048;6.090;2023-09-07T04:44:05;2.40;;;1.35;;
76599;SDS011;65489;52.048;6.090;2023-09-07T04:46:30;1.20;;;1.10;;
76599;SDS011;65489;52.048;6.090;2023-09-07T04:48:56;2.53;;;1.27;;
76599;SDS011;65489;52.048;6.090;2023-09-07T04:51:21;1.45;;;1.20;;
76599;SDS011;65489;52.048;6.090;2023-09-07T04:53:49;1.30;;;1.20;;
76599;SDS011;65489;52.048;6.090;2023-09-07T04:56:14;1.48;;;1.30;;
76599;SDS011;65489;52.048;6.090;2023-09-07T04:58:41;1.70;;;1.05;;
76599;SDS011;65489;52.048;6.090;2023-09-07T05:01:09;1.35;;;1.25;;
76599;SDS011;65489;52.048;6.090;2023-09-07T05:03:36;1.48;;;1.30;;
76599;SDS011;65489;52.048;6.090;2023-09-07T05:06:03;1.48;;;1.17;;
76599;SDS011;65489;52.048;6.090;2023-09-07T05:08:29;1.40;;;1.23;;
76599;SDS011;65489;52.048;6.090;2023-09-07T05:10:55;2.38;;;1.50;;
76599;SDS011;65489;52.048;6.090;2023-09-07T05:13:22;1.35;;;1.25;;
76599;SDS011;65489;52.048;6.090;2023-09-07T05:15:49;1.30;;;1.10;;
76599;SDS011;65489;52.048;6.090;2023-09-07T05:18:16;2.05;;;1.40;;
76599;SDS011;65489;52.048;6.090;2023-09-07T05:20:41;2.15;;;1.30;;
76599;SDS011;65489;52.048;6.090;2023-09-07T05:23:08;1.83;;;1.20;;
76599;SDS011;65489;52.048;6.090;2023-09-07T05:25:33;1.92;;;1.27;;
76599;SDS011;65489;52.048;6.090;2023-09-07T05:27:59;1.98;;;1.50;;
76599;SDS011;65489;52.048;6.090;2023-09-07T05:30:25;1.50;;;1.00;;
76599;SDS011;65489;52.048;6.090;2023-09-07T05:32:50;2.00;;;1.25;;
76599;SDS011;65489;52.048;6.090;2023-09-07T05:35:16;1.45;;;1.27;;
76599;SDS011;65489;52.048;6.090;2023-09-07T05:37:42;3.75;;;1.20;;
76599;SDS011;65489;52.048;6.090;2023-09-07T05:40:08;1.95;;;1.38;;
76599;SDS011;65489;52.048;6.090;2023-09-07T05:42:33;2.85;;;1.30;;
76599;SDS011;65489;52.048;6.090;2023-09-07T05:44:59;1.60;;;1.40;;
76599;SDS011;65489;52.048;6.090;2023-09-07T05:47:25;1.30;;;1.08;;
76599;SDS011;65489;52.048;6.090;2023-09-07T05:49:51;1.23;;;1.13;;
76599;SDS011;65489;52.048;6.090;2023-09-07T05:52:18;1.20;;;1.05;;
76599;SDS011;65489;52.048;6.090;2023-09-07T05:54:44;2.72;;;1.20;;
76599;SDS011;65489;52.048;6.090;2023-09-07T05:57:09;1.27;;;1.10;;
76599;SDS011;65489;52.048;6.090;2023-09-07T05:59:35;1.33;;;1.23;;
76599;SDS011;65489;52.048;6.090;2023-09-07T06:02:00;1.80;;;1.17;;
76599;SDS011;65489;52.048;6.090;2023-09-07T06:04:26;1.52;;;1.23;;
76599;SDS011;65489;52.048;6.090;2023-09-07T06:06:51;1.50;;;1.38;;
76599;SDS011;65489;52.048;6.090;2023-09-07T06:09:17;1.70;;;1.02;;
76599;SDS011;65489;52.048;6.090;2023-09-07T06:11:42;1.67;;;1.45;;
76599;SDS011;65489;52.048;6.090;2023-09-07T06:14:08;2.20;;;1.23;;
76599;SDS011;65489;52.048;6.090;2023-09-07T06:16:34;1.30;;;1.20;;
76599;SDS011;65489;52.048;6.090;2023-09-07T06:19:00;1.50;;;1.35;;
76599;SDS011;65489;52.048;6.090;2023-09-07T06:21:26;1.52;;;1.20;;
76599;SDS011;65489;52.048;6.090;2023-09-07T06:23:51;1.45;;;1.30;;
76599;SDS011;65489;52.048;6.090;2023-09-07T06:26:17;1.40;;;1.05;;
76599;SDS011;65489;52.048;6.090;2023-09-07T06:28:43;1.20;;;1.10;;
76599;SDS011;65489;52.048;6.090;2023-09-07T06:31:09;1.33;;;1.00;;
76599;SDS011;65489;52.048;6.090;2023-09-07T06:33:35;1.50;;;1.40;;
76599;SDS011;65489;52.048;6.090;2023-09-07T06:36:01;1.50;;;1.30;;
76599;SDS011;65489;52.048;6.090;2023-09-07T06:38:28;1.77;;;1.35;;
76599;SDS011;65489;52.048;6.090;2023-09-07T06:40:53;3.15;;;2.83;;
76599;SDS011;65489;52.048;6.090;2023-09-07T06:43:19;3.08;;;2.15;;
76599;SDS011;65489;52.048;6.090;2023-09-07T06:45:46;5.38;;;3.67;;
76599;SDS011;65489;52.048;6.090;2023-09-07T06:48:13;6.57;;;2.42;;
76599;SDS011;65489;52.048;6.090;2023-09-07T06:50:38;7.18;;;2.65;;
76599;SDS011;65489;52.048;6.090;2023-09-07T06:53:04;4.57;;;2.75;;
76599;SDS011;65489;52.048;6.090;2023-09-07T06:55:30;4.43;;;2.50;;
76599;SDS011;65489;52.048;6.090;2023-09-07T06:57:55;3.10;;;2.55;;
76599;SDS011;65489;52.048;6.090;2023-09-07T07:00:21;4.28;;;2.70;;
76599;SDS011;65489;52.048;6.090;2023-09-07T07:02:47;4.28;;;2.80;;
76599;SDS011;65489;52.048;6.090;2023-09-07T07:05:13;4.00;;;2.55;;
76599;SDS011;65489;52.048;6.090;2023-09-07T07:07:39;6.47;;;2.20;;
76599;SDS011;65489;52.048;6.090;2023-09-07T07:10:05;4.68;;;2.40;;
76599;SDS011;65489;52.048;6.090;2023-09-07T07:12:32;4.32;;;2.30;;
76599;SDS011;65489;52.048;6.090;2023-09-07T07:15:01;3.03;;;2.10;;
76599;SDS011;65489;52.048;6.090;2023-09-07T07:17:27;2.55;;;2.20;;
76599;SDS011;65489;52.048;6.090;2023-09-07T07:19:53;2.80;;;2.28;;
76599;SDS011;65489;52.048;6.090;2023-09-07T07:22:18;3.75;;;2.22;;
76599;SDS011;65489;52.048;6.090;2023-09-07T07:24:45;3.88;;;2.40;;
76599;SDS011;65489;52.048;6.090;2023-09-07T07:27:11;5.75;;;1.88;;
76599;SDS011;65489;52.048;6.090;2023-09-07T07:29:36;5.00;;;2.22;;
76599;SDS011;65489;52.048;6.090;2023-09-07T07:32:02;5.35;;;2.95;;
76599;SDS011;65489;52.048;6.090;2023-09-07T07:34:29;3.38;;;2.60;;
76599;SDS011;65489;52.048;6.090;2023-09-07T07:36:55;3.05;;;2.05;;
76599;SDS011;65489;52.048;6.090;2023-09-07T07:39:22;2.55;;;2.10;;
76599;SDS011;65489;52.048;6.090;2023-09-07T07:41:47;3.90;;;2.17;;
76599;SDS011;65489;52.048;6.090;2023-09-07T07:44:13;3.47;;;1.95;;
76599;SDS011;65489;52.048;6.090;2023-09-07T07:46:39;3.63;;;2.35;;
76599;SDS011;65489;52.048;6.090;2023-09-07T07:49:04;6.07;;;2.58;;
76599;SDS011;65489;52.048;6.090;2023-09-07T07:51:30;2.95;;;2.38;;
76599;SDS011;65489;52.048;6.090;2023-09-07T07:53:56;4.47;;;2.25;;
76599;SDS011;65489;52.048;6.090;2023-09-07T07:56:22;3.70;;;2.80;;
76599;SDS011;65489;52.048;6.090;2023-09-07T07:58:51;3.78;;;2.33;;
76599;SDS011;65489;52.048;6.090;2023-09-07T08:01:18;3.00;;;1.92;;
76599;SDS011;65489;52.048;6.090;2023-09-07T08:03:46;4.70;;;2.47;;
76599;SDS011;65489;52.048;6.090;2023-09-07T08:06:12;2.10;;;1.90;;
76599;SDS011;65489;52.048;6.090;2023-09-07T08:08:38;4.90;;;2.33;;
76599;SDS011;65489;52.048;6.090;2023-09-07T08:11:05;5.50;;;2.30;;
76599;SDS011;65489;52.048;6.090;2023-09-07T08:13:33;4.13;;;2.22;;
76599;SDS011;65489;52.048;6.090;2023-09-07T08:16:02;2.88;;;2.30;;
76599;SDS011;65489;52.048;6.090;2023-09-07T08:18:29;3.20;;;2.50;;
76599;SDS011;65489;52.048;6.090;2023-09-07T08:20:57;2.55;;;2.05;;
76599;SDS011;65489;52.048;6.090;2023-09-07T08:23:23;5.22;;;2.03;;
76599;SDS011;65489;52.048;6.090;2023-09-07T08:25:52;4.03;;;2.42;;
76599;SDS011;65489;52.048;6.090;2023-09-07T08:28:19;4.88;;;3.17;;
76599;SDS011;65489;52.048;6.090;2023-09-07T08:30:48;2.53;;;2.17;;
76599;SDS011;65489;52.048;6.090;2023-09-07T08:33:15;2.78;;;2.10;;
76599;SDS011;65489;52.048;6.090;2023-09-07T08:35:40;3.08;;;1.70;;
76599;SDS011;65489;52.048;6.090;2023-09-07T08:38:09;3.45;;;2.47;;
76599;SDS011;65489;52.048;6.090;2023-09-07T08:40:35;2.75;;;2.10;;
76599;SDS011;65489;52.048;6.090;2023-09-07T08:43:03;3.97;;;1.90;;
76599;SDS011;65489;52.048;6.090;2023-09-07T08:45:29;3.17;;;2.40;;
76599;SDS011;65489;52.048;6.090;2023-09-07T08:47:56;5.47;;;3.03;;
76599;SDS011;65489;52.048;6.090;2023-09-07T08:50:22;4.53;;;2.30;;
76599;SDS011;65489;52.048;6.090;2023-09-07T08:52:48;3.00;;;2.47;;
76599;SDS011;65489;52.048;6.090;2023-09-07T08:55:17;3.72;;;2.55;;
76599;SDS011;65489;52.048;6.090;2023-09-07T08:57:42;2.58;;;2.13;;
76599;SDS011;65489;52.048;6.090;2023-09-07T09:00:08;1.95;;;1.75;;
76599;SDS011;65489;52.048;6.090;2023-09-07T09:02:38;3.53;;;2.10;;
76599;SDS011;65489;52.048;6.090;2023-09-07T09:05:04;2.88;;;2.58;;
76599;SDS011;65489;52.048;6.090;2023-09-07T09:07:30;2.63;;;2.38;;
76599;SDS011;65489;52.048;6.090;2023-09-07T09:10:04;4.20;;;2.85;;
76599;SDS011;65489;52.048;6.090;2023-09-07T09:12:30;2.67;;;2.42;;
76599;SDS011;65489;52.048;6.090;2023-09-07T09:14:56;3.28;;;2.60;;
76599;SDS011;65489;52.048;6.090;2023-09-07T09:17:24;2.75;;;2.20;;
76599;SDS011;65489;52.048;6.090;2023-09-07T09:19:49;2.83;;;2.42;;
76599;SDS011;65489;52.048;6.090;2023-09-07T09:22:15;3.42;;;2.30;;
76599;SDS011;65489;52.048;6.090;2023-09-07T09:24:40;3.35;;;2.72;;
76599;SDS011;65489;52.048;6.090;2023-09-07T09:27:06;2.80;;;2.10;;
76599;SDS011;65489;52.048;6.090;2023-09-07T09:29:34;3.42;;;2.38;;
76599;SDS011;65489;52.048;6.090;2023-09-07T09:34:30;2.17;;;1.98;;
76599;SDS011;65489;52.048;6.090;2023-09-07T09:36:58;2.33;;;2.13;;
76599;SDS011;65489;52.048;6.090;2023-09-07T09:39:23;3.28;;;2.63;;
76599;SDS011;65489;52.048;6.090;2023-09-07T09:41:49;4.22;;;2.33;;
76599;SDS011;65489;52.048;6.090;2023-09-07T09:44:17;2.90;;;2.60;;
76599;SDS011;65489;52.048;6.090;2023-09-07T09:46:51;3.20;;;2.35;;
76599;SDS011;65489;52.048;6.090;2023-09-07T09:49:20;5.35;;;2.60;;
76599;SDS011;65489;52.048;6.090;2023-09-07T09:51:47;2.35;;;1.92;;
76599;SDS011;65489;52.048;6.090;2023-09-07T09:54:16;2.97;;;2.03;;
76599;SDS011;65489;52.048;6.090;2023-09-07T09:56:43;3.58;;;2.03;;
76599;SDS011;65489;52.048;6.090;2023-09-07T09:59:08;2.42;;;1.90;;
76599;SDS011;65489;52.048;6.090;2023-09-07T10:01:44;2.20;;;2.00;;
76599;SDS011;65489;52.048;6.090;2023-09-07T10:04:14;4.32;;;1.75;;
76599;SDS011;65489;52.048;6.090;2023-09-07T10:06:49;2.85;;;1.80;;
76599;SDS011;65489;52.048;6.090;2023-09-07T10:09:23;2.03;;;1.80;;
76599;SDS011;65489;52.048;6.090;2023-09-07T10:11:52;2.55;;;2.28;;
76599;SDS011;65489;52.048;6.090;2023-09-07T10:14:18;2.50;;;2.25;;
76599;SDS011;65489;52.048;6.090;2023-09-07T10:16:53;2.40;;;1.95;;
76599;SDS011;65489;52.048;6.090;2023-09-07T10:19:25;3.20;;;2.00;;
76599;SDS011;65489;52.048;6.090;2023-09-07T10:21:54;3.22;;;2.30;;
76599;SDS011;65489;52.048;6.090;2023-09-07T10:24:24;2.45;;;2.08;;
76599;SDS011;65489;52.048;6.090;2023-09-07T10:26:58;2.35;;;2.15;;
76599;SDS011;65489;52.048;6.090;2023-09-07T10:29:25;3.25;;;2.08;;
76599;SDS011;65489;52.048;6.090;2023-09-07T10:31:51;2.50;;;2.08;;
76599;SDS011;65489;52.048;6.090;2023-09-07T10:34:16;3.55;;;2.13;;
76599;SDS011;65489;52.048;6.090;2023-09-07T10:36:42;2.05;;;1.80;;
76599;SDS011;65489;52.048;6.090;2023-09-07T10:39:08;2.50;;;2.30;;
76599;SDS011;65489;52.048;6.090;2023-09-07T10:41:40;3.20;;;2.17;;
76599;SDS011;65489;52.048;6.090;2023-09-07T10:44:09;2.72;;;2.13;;
76599;SDS011;65489;52.048;6.090;2023-09-07T10:46:39;2.13;;;1.85;;
76599;SDS011;65489;52.048;6.090;2023-09-07T10:49:08;4.43;;;2.20;;
76599;SDS011;65489;52.048;6.090;2023-09-07T10:51:41;2.72;;;1.80;;
76599;SDS011;65489;52.048;6.090;2023-09-07T10:54:17;3.53;;;1.70;;
76599;SDS011;65489;52.048;6.090;2023-09-07T10:56:44;2.30;;;1.90;;
76599;SDS011;65489;52.048;6.090;2023-09-07T10:59:10;2.63;;;2.20;;
76599;SDS011;65489;52.048;6.090;2023-09-07T11:01:36;1.65;;;1.50;;
76599;SDS011;65489;52.048;6.090;2023-09-07T11:04:02;3.85;;;2.20;;
76599;SDS011;65489;52.048;6.090;2023-09-07T11:06:29;2.25;;;2.05;;
76599;SDS011;65489;52.048;6.090;2023-09-07T11:08:54;2.38;;;1.90;;
76599;SDS011;65489;52.048;6.090;2023-09-07T11:11:20;2.67;;;2.10;;
76599;SDS011;65489;52.048;6.090;2023-09-07T11:13:48;2.20;;;1.90;;
76599;SDS011;65489;52.048;6.090;2023-09-07T11:16:13;2.47;;;2.13;;
76599;SDS011;65489;52.048;6.090;2023-09-07T11:18:39;2.03;;;1.58;;
76599;SDS011;65489;52.048;6.090;2023-09-07T11:21:05;2.47;;;1.70;;
76599;SDS011;65489;52.048;6.090;2023-09-07T11:23:32;2.65;;;2.10;;
76599;SDS011;65489;52.048;6.090;2023-09-07T11:26:07;3.17;;;2.00;;
76599;SDS011;65489;52.048;6.090;2023-09-07T11:28:32;2.60;;;1.90;;
76599;SDS011;65489;52.048;6.090;2023-09-07T11:30:58;1.83;;;1.67;;
76599;SDS011;65489;52.048;6.090;2023-09-07T11:33:24;2.28;;;2.08;;
76599;SDS011;65489;52.048;6.090;2023-09-07T11:35:50;2.78;;;1.92;;
76599;SDS011;65489;52.048;6.090;2023-09-07T11:38:16;3.08;;;1.80;;
76599;SDS011;65489;52.048;6.090;2023-09-07T11:40:43;3.22;;;1.50;;
76599;SDS011;65489;52.048;6.090;2023-09-07T11:43:13;2.13;;;1.92;;
76599;SDS011;65489;52.048;6.090;2023-09-07T11:45:43;2.00;;;1.80;;
76599;SDS011;65489;52.048;6.090;2023-09-07T11:48:09;1.77;;;1.58;;
76599;SDS011;65489;52.048;6.090;2023-09-07T11:50:35;3.45;;;1.70;;
76599;SDS011;65489;52.048;6.090;2023-09-07T11:53:01;2.25;;;1.90;;
76599;SDS011;65489;52.048;6.090;2023-09-07T11:55:26;2.70;;;1.60;;
76599;SDS011;65489;52.048;6.090;2023-09-07T11:57:52;2.45;;;2.05;;
76599;SDS011;65489;52.048;6.090;2023-09-07T12:00:18;2.50;;;1.75;;
76599;SDS011;65489;52.048;6.090;2023-09-07T12:02:44;2.00;;;1.80;;
76599;SDS011;65489;52.048;6.090;2023-09-07T12:05:09;3.22;;;2.05;;
76599;SDS011;65489;52.048;6.090;2023-09-07T12:07:37;2.15;;;1.95;;
76599;SDS011;65489;52.048;6.090;2023-09-07T12:10:03;2.40;;;1.90;;
76599;SDS011;65489;52.048;6.090;2023-09-07T12:12:29;2.50;;;2.00;;
76599;SDS011;65489;52.048;6.090;2023-09-07T12:14:55;3.35;;;2.15;;
76599;SDS011;65489;52.048;6.090;2023-09-07T12:17:21;3.35;;;1.95;;
76599;SDS011;65489;52.048;6.090;2023-09-07T12:19:49;2.08;;;1.83;;
76599;SDS011;65489;52.048;6.090;2023-09-07T12:22:15;2.38;;;1.90;;
76599;SDS011;65489;52.048;6.090;2023-09-07T12:24:40;2.38;;;1.95;;
76599;SDS011;65489;52.048;6.090;2023-09-07T12:27:05;2.50;;;2.00;;
76599;SDS011;65489;52.048;6.090;2023-09-07T12:29:31;3.45;;;2.08;;
76599;SDS011;65489;52.048;6.090;2023-09-07T12:31:56;2.78;;;1.85;;
76599;SDS011;65489;52.048;6.090;2023-09-07T12:34:22;2.80;;;1.80;;
76599;SDS011;65489;52.048;6.090;2023-09-07T12:36:48;1.98;;;1.73;;
76599;SDS011;65489;52.048;6.090;2023-09-07T12:39:14;2.88;;;1.95;;
76599;SDS011;65489;52.048;6.090;2023-09-07T12:41:39;2.40;;;1.80;;
76599;SDS011;65489;52.048;6.090;2023-09-07T12:44:05;3.08;;;1.90;;
76599;SDS011;65489;52.048;6.090;2023-09-07T12:46:31;2.20;;;2.00;;
76599;SDS011;65489;52.048;6.090;2023-09-07T12:48:57;2.13;;;1.90;;
76599;SDS011;65489;52.048;6.090;2023-09-07T12:51:22;3.42;;;1.98;;
76599;SDS011;65489;52.048;6.090;2023-09-07T12:53:48;2.33;;;1.80;;
76599;SDS011;65489;52.048;6.090;2023-09-07T12:56:13;4.60;;;2.03;;
76599;SDS011;65489;52.048;6.090;2023-09-07T12:58:41;2.75;;;1.83;;
76599;SDS011;65489;52.048;6.090;2023-09-07T13:01:06;1.95;;;1.63;;
76599;SDS011;65489;52.048;6.090;2023-09-07T13:03:35;2.30;;;2.10;;
76599;SDS011;65489;52.048;6.090;2023-09-07T13:06:01;3.92;;;1.88;;
76599;SDS011;65489;52.048;6.090;2023-09-07T13:08:28;3.03;;;2.28;;
76599;SDS011;65489;52.048;6.090;2023-09-07T13:10:54;2.53;;;2.33;;
76599;SDS011;65489;52.048;6.090;2023-09-07T13:13:20;3.30;;;1.77;;
76599;SDS011;65489;52.048;6.090;2023-09-07T13:15:47;2.80;;;2.17;;
76599;SDS011;65489;52.048;6.090;2023-09-07T13:18:13;2.22;;;2.03;;
76599;SDS011;65489;52.048;6.090;2023-09-07T13:20:38;3.42;;;1.92;;
76599;SDS011;65489;52.048;6.090;2023-09-07T13:23:04;2.33;;;1.92;;
76599;SDS011;65489;52.048;6.090;2023-09-07T13:25:30;2.15;;;1.73;;
76599;SDS011;65489;52.048;6.090;2023-09-07T13:27:55;2.00;;;1.80;;
76599;SDS011;65489;52.048;6.090;2023-09-07T13:30:21;2.13;;;1.70;;
76599;SDS011;65489;52.048;6.090;2023-09-07T13:32:46;1.98;;;1.77;;
76599;SDS011;65489;52.048;6.090;2023-09-07T13:35:12;1.88;;;1.75;;
76599;SDS011;65489;52.048;6.090;2023-09-07T13:37:37;2.40;;;1.92;;
76599;SDS011;65489;52.048;6.090;2023-09-07T13:40:03;2.60;;;2.00;;
76599;SDS011;65489;52.048;6.090;2023-09-07T13:42:29;2.42;;;2.00;;
76599;SDS011;65489;52.048;6.090;2023-09-07T13:44:54;2.38;;;1.88;;
76599;SDS011;65489;52.048;6.090;2023-09-07T13:47:21;3.38;;;2.10;;
76599;SDS011;65489;52.048;6.090;2023-09-07T13:49:46;2.90;;;2.10;;
76599;SDS011;65489;52.048;6.090;2023-09-07T13:52:12;2.40;;;2.20;;
76599;SDS011;65489;52.048;6.090;2023-09-07T13:54:38;3.80;;;2.15;;
76599;SDS011;65489;52.048;6.090;2023-09-07T13:57:04;1.88;;;1.77;;
76599;SDS011;65489;52.048;6.090;2023-09-07T13:59:29;2.70;;;2.00;;
76599;SDS011;65489;52.048;6.090;2023-09-07T14:01:57;2.15;;;1.83;;
76599;SDS011;65489;52.048;6.090;2023-09-07T14:04:23;4.05;;;2.10;;
76599;SDS011;65489;52.048;6.090;2023-09-07T14:06:48;2.30;;;1.98;;
76599;SDS011;65489;52.048;6.090;2023-09-07T14:09:14;2.30;;;2.00;;
76599;SDS011;65489;52.048;6.090;2023-09-07T14:11:39;2.33;;;2.13;;
76599;SDS011;65489;52.048;6.090;2023-09-07T14:14:05;2.35;;;2.00;;
76599;SDS011;65489;52.048;6.090;2023-09-07T14:16:31;2.10;;;1.90;;
76599;SDS011;65489;52.048;6.090;2023-09-07T14:18:56;3.15;;;2.13;;
76599;SDS011;65489;52.048;6.090;2023-09-07T14:21:22;2.20;;;1.95;;
76599;SDS011;65489;52.048;6.090;2023-09-07T14:23:47;2.35;;;2.00;;
76599;SDS011;65489;52.048;6.090;2023-09-07T14:26:13;2.28;;;1.92;;
76599;SDS011;65489;52.048;6.090;2023-09-07T14:28:39;2.83;;;1.70;;
76599;SDS011;65489;52.048;6.090;2023-09-07T14:31:05;3.58;;;2.03;;
76599;SDS011;65489;52.048;6.090;2023-09-07T14:33:34;3.45;;;2.03;;
76599;SDS011;65489;52.048;6.090;2023-09-07T14:36:02;5.40;;;2.05;;
76599;SDS011;65489;52.048;6.090;2023-09-07T14:38:27;4.75;;;2.03;;
76599;SDS011;65489;52.048;6.090;2023-09-07T14:40:53;2.47;;;2.08;;
76599;SDS011;65489;52.048;6.090;2023-09-07T14:43:21;2.10;;;1.90;;
76599;SDS011;65489;52.048;6.090;2023-09-07T14:45:49;2.30;;;2.03;;
76599;SDS011;65489;52.048;6.090;2023-09-07T14:48:15;2.33;;;2.03;;